Sligo, PA (16255)

1:32 AM EST on February 12, 2016 (GMT -0500)
Clarion Oaks Golf Course | | Change Station
CLOSE
Current Station
Personal Weather Station
Location: Clarion, PA
Elevation: 1503 ft
Nearby Weather Stations

Elev 1503 ft 41.19 °N, 79.38 °W | Updated 2 minutes ago

Mostly Cloudy
Mostly Cloudy
7.6 °F
Feels Like 8 °F
N
2.0
Wind Variable Wind from SSW
Gusts 4.0 mph

Today
High -- | Low -- °F
--% Chance of Precip.
Yesterday
High -- | Low -- °F
Precip. -- in
Pressure 30.18 in
Visibility 10.0 miles
Clouds Clear
Windchill 8 °F
Dew Point 5 °F
Humidity 90%
Rainfall 0.00 in
Snow Depth Not available.
7:16 AM 5:47 PM
Waxing Crescent, 18% visible
METAR KFKL 120615Z 22004KT 10SM CLR M15/M18 A3018 RMK AO1
Pressure 30.18 in
Visibility 10.0 miles
Clouds Clear
Windchill 8 °F
Dew Point 5 °F
Humidity 90%
Rainfall 0.00 in
Snow Depth Not available.
7:16 AM 5:47 PM
Waxing Crescent, 18% visible
METAR KFKL 120615Z 22004KT 10SM CLR M15/M18 A3018 RMK AO1

10-Day Weather Forecast

Almanac

Astronomy

Feb. 12, 2016 Rise Set
Actual Time
Civil Twilight
Nautical Twilight
Astronomical Twilight
Moon
Length of Visible Light
Length of Day
Tomorrow will be .
, % of the Moon is Illuminated

Today's Extremes

State Highs State Lows

Community

WunderPhotos

Upload Photos

1,892,276 photos uploaded!

WunderBlog® & News

Nearby

Air Quality

  Air Quality AQ Index Pollutant
Not available.

Snow Depth

Station Depth Elevation

Earthquake Activity

City Distance Mag. Time & Date
Minimum magnitude displayed is 2.5.

Coastal Water Temperatures

Place Temperature

Stations

Nearby Weather Stations

Station Location Temp. Windchill Dew Point Humidity Wind Precip. Elev Updated Type
                   

Watches & Warnings

There are currently no watches in effect.